Thunder radar more information blitzortung!


Radar de pluja more information rain snow radar


Visita la nostra xarxa de llocs de meteo:

Template documentation
and downloads

And another site



No particular awareness of the weather is required.    There are no Weather-warnings

Pagina Historial Weather Underground text

Diari Resum Octubre 12, 2017 Unitats:  Tant    Imperial   Mètric
« Previous Dia
SegĂźent Dia »
Diari Setmana Mensual Anual Personalitzada
  Maxima: Minima: Media:
Temperatura: 81.1 °F /  27.3 °C 56.8 °F /  13.8 °C 69.8 °F /  21 °C
Punt de rosada: 63.7 °F /  17.6 °C 54 °F /  12.2 °C 60.4 °F /  15.8 °C
Humitat: 93 % 51 % 74 %
Wind Speed: 9.7 mph /  15.6 km/h - 3.5 mph /  5.7 km/h
RĂ fegues de vent: 9.7 mph /  15.6 km/h - -
Vent:- - SSW
Pression baro: 30.3 in /  1027.0 hPa 30.2 in /  1022.9 hPa -
Precipitacions: 0 in /  0.0 mm    
Historical Graphs
 
 
Dades de taula per Octubre 12, 2017
Temps Temperatura Punt de rosada Pression baro Vent Wind Speed RĂ fegues de vent Humitat Rainfall Rate (Hourly)
00:00 59 °F /  15.0 °C 56.1 °F /  13.4 °C 30.2 in /  1023.9 hPa Calm   1 mph /  1.6 km/h 90 % 0 in /  0.0 mm
00:02 65.1 °F /  18.4 °C 60.3 °F /  15.7 °C 30.2 in /  1023.9 hPa West 1.2 mph /  1.9 km/h   84 % 0 in /  0.0 mm
00:07 65.1 °F /  18.4 °C 60.3 °F /  15.7 °C 30.2 in /  1023.9 hPa West 1.2 mph /  1.9 km/h 1.4 mph /  2.3 km/h 84 % 0 in /  0.0 mm
00:10 58.8 °F /  14.9 °C 55.9 °F /  13.3 °C 30.2 in /  1023.9 hPa Calm   1 mph /  1.6 km/h 90 % 0 in /  0.0 mm
00:12 65.1 °F /  18.4 °C 60.4 °F /  15.8 °C 30.2 in /  1023.9 hPa West 1.6 mph /  2.6 km/h 1.6 mph /  2.6 km/h 85 % 0 in /  0.0 mm
00:20 58.5 °F /  14.7 °C 55.6 °F /  13.1 °C 30.2 in /  1023.9 hPa Calm   1 mph /  1.6 km/h 90 % 0 in /  0.0 mm
00:30 58.3 °F /  14.6 °C 55.4 °F /  13.0 °C 30.2 in /  1023.9 hPa SW 2 mph /  3.2 km/h 2 mph /  3.2 km/h 90 % 0 in /  0.0 mm
00:40 57.9 °F /  14.4 °C 54.7 °F /  12.6 °C 30.2 in /  1023.9 hPa SW 2 mph /  3.2 km/h 3 mph /  4.8 km/h 89 % 0 in /  0.0 mm
00:50 57.6 °F /  14.2 °C 54.3 °F /  12.4 °C 30.2 in /  1023.9 hPa SW 1 mph /  1.6 km/h 2 mph /  3.2 km/h 89 % 0 in /  0.0 mm
01:00 57.4 °F /  14.1 °C 54.5 °F /  12.5 °C 30.2 in /  1023.9 hPa Calm   2 mph /  3.2 km/h 90 % 0 in /  0.0 mm
01:10 57.4 °F /  14.1 °C 54.5 °F /  12.5 °C 30.2 in /  1023.9 hPa Calm   2 mph /  3.2 km/h 90 % 0 in /  0.0 mm
01:20 57.4 °F /  14.1 °C 54.5 °F /  12.5 °C 30.2 in /  1023.9 hPa SW 2 mph /  3.2 km/h 2 mph /  3.2 km/h 90 % 0 in /  0.0 mm
01:30 57.4 °F /  14.1 °C 54.5 °F /  12.5 °C 30.2 in /  1023.9 hPa SW 1 mph /  1.6 km/h 2 mph /  3.2 km/h 90 % 0 in /  0.0 mm
01:40 57.4 °F /  14.1 °C 54.5 °F /  12.5 °C 30.2 in /  1023.9 hPa WSW 2 mph /  3.2 km/h 2 mph /  3.2 km/h 90 % 0 in /  0.0 mm
01:50 57.6 °F /  14.2 °C 54.7 °F /  12.6 °C 30.2 in /  1023.9 hPa WSW 1 mph /  1.6 km/h 2 mph /  3.2 km/h 90 % 0 in /  0.0 mm
02:00 57.4 °F /  14.1 °C 54.5 °F /  12.5 °C 30.3 in /  1024.9 hPa WSW 2 mph /  3.2 km/h 2 mph /  3.2 km/h 90 % 0 in /  0.0 mm
02:10 57 °F /  13.9 °C 54.1 °F /  12.3 °C 30.3 in /  1024.9 hPa SW 2 mph /  3.2 km/h 2 mph /  3.2 km/h 90 % 0 in /  0.0 mm
02:20 56.8 °F /  13.8 °C 54 °F /  12.2 °C 30.3 in /  1024.9 hPa WSW 1 mph /  1.6 km/h 2 mph /  3.2 km/h 90 % 0 in /  0.0 mm
02:30 57 °F /  13.9 °C 54.3 °F /  12.4 °C 30.3 in /  1026.0 hPa SW 1 mph /  1.6 km/h 3 mph /  4.8 km/h 91 % 0 in /  0.0 mm
02:50 57.6 °F /  14.2 °C 55.2 °F /  12.9 °C 30.3 in /  1026.0 hPa Calm   2 mph /  3.2 km/h 92 % 0 in /  0.0 mm
03:00 57.4 °F /  14.1 °C 55 °F /  12.8 °C 30.3 in /  1026.0 hPa Calm   1 mph /  1.6 km/h 92 % 0 in /  0.0 mm
03:10 57.4 °F /  14.1 °C 55 °F /  12.8 °C 30.3 in /  1026.0 hPa Calm     92 % 0 in /  0.0 mm
03:20 57.2 °F /  14.0 °C 54.9 °F /  12.7 °C 30.3 in /  1026.0 hPa Calm     92 % 0 in /  0.0 mm
03:30 57.4 °F /  14.1 °C 55 °F /  12.8 °C 30.3 in /  1026.0 hPa Calm     92 % 0 in /  0.0 mm
03:40 57.6 °F /  14.2 °C 55.6 °F /  13.1 °C 30.3 in /  1026.0 hPa Calm     93 % 0 in /  0.0 mm
03:50 57.7 °F /  14.3 °C 55.4 °F /  13.0 °C 30.3 in /  1026.0 hPa Calm     92 % 0 in /  0.0 mm
04:00 57.9 °F /  14.4 °C 55.9 °F /  13.3 °C 30.3 in /  1026.0 hPa Calm     93 % 0 in /  0.0 mm
04:10 58.8 °F /  14.9 °C 56.8 °F /  13.8 °C 30.3 in /  1026.0 hPa WSW 1 mph /  1.6 km/h 1 mph /  1.6 km/h 93 % 0 in /  0.0 mm
04:20 59.4 °F /  15.2 °C 57.4 °F /  14.1 °C 30.3 in /  1026.0 hPa WSW 1 mph /  1.6 km/h 2 mph /  3.2 km/h 93 % 0 in /  0.0 mm
04:30 59.9 °F /  15.5 °C 57.9 °F /  14.4 °C 30.3 in /  1026.0 hPa Calm   1 mph /  1.6 km/h 93 % 0 in /  0.0 mm
04:40 60.8 °F /  16.0 °C 58.8 °F /  14.9 °C 30.3 in /  1026.0 hPa SW 2 mph /  3.2 km/h 2 mph /  3.2 km/h 93 % 0 in /  0.0 mm
04:50 61 °F /  16.1 °C 58.8 °F /  14.9 °C 30.3 in /  1026.0 hPa Calm   2 mph /  3.2 km/h 93 % 0 in /  0.0 mm
05:00 61.5 °F /  16.4 °C 59.5 °F /  15.3 °C 30.3 in /  1026.0 hPa Calm     93 % 0 in /  0.0 mm
05:10 61.9 °F /  16.6 °C 59.7 °F /  15.4 °C 30.3 in /  1026.0 hPa South 1 mph /  1.6 km/h 2 mph /  3.2 km/h 93 % 0 in /  0.0 mm
05:20 62.2 °F /  16.8 °C 59.9 °F /  15.5 °C 30.3 in /  1027.0 hPa North 1 mph /  1.6 km/h 2 mph /  3.2 km/h 92 % 0 in /  0.0 mm
05:30 63 °F /  17.2 °C 60.3 °F /  15.7 °C 30.3 in /  1027.0 hPa NNW 1 mph /  1.6 km/h 2 mph /  3.2 km/h 91 % 0 in /  0.0 mm
05:40 63.3 °F /  17.4 °C 60.3 °F /  15.7 °C 30.3 in /  1027.0 hPa SSW 2 mph /  3.2 km/h 3 mph /  4.8 km/h 90 % 0 in /  0.0 mm
05:50 64.2 °F /  17.9 °C 60.6 °F /  15.9 °C 30.3 in /  1027.0 hPa NE 1 mph /  1.6 km/h 2 mph /  3.2 km/h 88 % 0 in /  0.0 mm
06:00 65.1 °F /  18.4 °C 60.8 °F /  16.0 °C 30.3 in /  1027.0 hPa Calm   1 mph /  1.6 km/h 86 % 0 in /  0.0 mm
11:01 65.5 °F /  18.6 °C 61.2 °F /  16.2 °C 30.3 in /  1027.0 hPa NNW 1.2 mph /  1.9 km/h   86 % 0 in /  0.0 mm
11:06 65.5 °F /  18.6 °C 60.8 °F /  16.0 °C 30.3 in /  1027.0 hPa NNE 1.4 mph /  2.3 km/h 1.4 mph /  2.3 km/h 85 % 0 in /  0.0 mm
11:11 65.7 °F /  18.7 °C 60.6 °F /  15.9 °C 30.3 in /  1027.0 hPa South 1.2 mph /  1.9 km/h   84 % 0 in /  0.0 mm
11:16 66.2 °F /  19.0 °C 61 °F /  16.1 °C 30.3 in /  1027.0 hPa SW 2.3 mph /  3.7 km/h 2.3 mph /  3.7 km/h 83 % 0 in /  0.0 mm
11:21 66.4 °F /  19.1 °C 61.2 °F /  16.2 °C 30.3 in /  1027.0 hPa South 2.3 mph /  3.7 km/h 2.3 mph /  3.7 km/h 83 % 0 in /  0.0 mm
11:31 66.6 °F /  19.2 °C 61 °F /  16.1 °C 30.3 in /  1027.0 hPa ESE 1.2 mph /  1.9 km/h 1.2 mph /  1.9 km/h 82 % 0 in /  0.0 mm
11:36 67.1 °F /  19.5 °C 61.3 °F /  16.3 °C 30.3 in /  1027.0 hPa SE 1.6 mph /  2.6 km/h 1.6 mph /  2.6 km/h 82 % 0 in /  0.0 mm
11:41 67.8 °F /  19.9 °C 62.1 °F /  16.7 °C 30.3 in /  1027.0 hPa WNW 2.3 mph /  3.7 km/h 2.3 mph /  3.7 km/h 82 % 0 in /  0.0 mm
11:46 68 °F /  20.0 °C 61.9 °F /  16.6 °C 30.3 in /  1027.0 hPa NNE 2.3 mph /  3.7 km/h 2.3 mph /  3.7 km/h 81 % 0 in /  0.0 mm
11:47 68.2 °F /  20.1 °C 61.9 °F /  16.6 °C 30.3 in /  1027.0 hPa NNE 1.2 mph /  1.9 km/h   80 % 0 in /  0.0 mm
11:57 68.5 °F /  20.3 °C 61.9 °F /  16.6 °C 30.3 in /  1027.0 hPa NNW 1.2 mph /  1.9 km/h   79 % 0 in /  0.0 mm
12:02 69.3 °F /  20.7 °C 62.1 °F /  16.7 °C 30.3 in /  1027.0 hPa NE 1.2 mph /  1.9 km/h   78 % 0 in /  0.0 mm
12:07 69.4 °F /  20.8 °C 61.9 °F /  16.6 °C 30.3 in /  1027.0 hPa SE 3.5 mph /  5.6 km/h 3.5 mph /  5.6 km/h 77 % 0 in /  0.0 mm
12:12 69.8 °F /  21.0 °C 61.9 °F /  16.6 °C 30.3 in /  1027.0 hPa ESE 2.3 mph /  3.7 km/h 2.3 mph /  3.7 km/h 76 % 0 in /  0.0 mm
12:17 71.1 °F /  21.7 °C 63.1 °F /  17.3 °C 30.3 in /  1027.0 hPa ESE 2.4 mph /  3.9 km/h 2.4 mph /  3.9 km/h 76 % 0 in /  0.0 mm
12:22 71.6 °F /  22.0 °C 63.3 °F /  17.4 °C 30.3 in /  1027.0 hPa East 2.2 mph /  3.5 km/h 2.2 mph /  3.5 km/h 75 % 0 in /  0.0 mm
12:27 72 °F /  22.2 °C 63.1 °F /  17.3 °C 30.3 in /  1027.0 hPa NNE 3.6 mph /  5.8 km/h 3.6 mph /  5.8 km/h 74 % 0 in /  0.0 mm
12:32 71.6 °F /  22.0 °C 62.1 °F /  16.7 °C 30.3 in /  1027.0 hPa ENE 3.5 mph /  5.6 km/h 3.5 mph /  5.6 km/h 72 % 0 in /  0.0 mm
12:37 72.1 °F /  22.3 °C 63 °F /  17.2 °C 30.3 in /  1027.0 hPa ENE 3.8 mph /  6.1 km/h 3.8 mph /  6.1 km/h 73 % 0 in /  0.0 mm
12:42 72.7 °F /  22.6 °C 63.5 °F /  17.5 °C 30.3 in /  1027.0 hPa ENE 3.6 mph /  5.8 km/h 3.6 mph /  5.8 km/h 73 % 0 in /  0.0 mm
12:44 72.5 °F /  22.5 °C 63 °F /  17.2 °C 30.3 in /  1027.0 hPa NNE 3.5 mph /  5.6 km/h 3.5 mph /  5.6 km/h 72 % 0 in /  0.0 mm
12:49 72.3 °F /  22.4 °C 62.8 °F /  17.1 °C 30.3 in /  1027.0 hPa NE 4.6 mph /  7.4 km/h 4.6 mph /  7.4 km/h 72 % 0 in /  0.0 mm
12:54 72.3 °F /  22.4 °C 62.8 °F /  17.1 °C 30.3 in /  1027.0 hPa WNW 1.2 mph /  1.9 km/h 1.2 mph /  1.9 km/h 72 % 0 in /  0.0 mm
12:59 72.9 °F /  22.7 °C 63.3 °F /  17.4 °C 30.3 in /  1027.0 hPa NW 2.3 mph /  3.7 km/h 2.3 mph /  3.7 km/h 72 % 0 in /  0.0 mm
13:04 73.6 °F /  23.1 °C 63.1 °F /  17.3 °C 30.3 in /  1027.0 hPa ESE 2.3 mph /  3.7 km/h 2.3 mph /  3.7 km/h 70 % 0 in /  0.0 mm
13:09 73.9 °F /  23.3 °C 63.1 °F /  17.3 °C 30.3 in /  1027.0 hPa SE 3.5 mph /  5.6 km/h 3.5 mph /  5.6 km/h 69 % 0 in /  0.0 mm
13:14 73.8 °F /  23.2 °C 62.1 °F /  16.7 °C 30.3 in /  1027.0 hPa SW 3.5 mph /  5.6 km/h 3.5 mph /  5.6 km/h 67 % 0 in /  0.0 mm
13:19 74.1 °F /  23.4 °C 63.3 °F /  17.4 °C 30.3 in /  1027.0 hPa NE 3.5 mph /  5.6 km/h 3.5 mph /  5.6 km/h 69 % 0 in /  0.0 mm
13:24 73.4 °F /  23.0 °C 61.9 °F /  16.6 °C 30.3 in /  1027.0 hPa SE 3.5 mph /  5.6 km/h 3.5 mph /  5.6 km/h 67 % 0 in /  0.0 mm
13:29 74.7 °F /  23.7 °C 63.3 °F /  17.4 °C 30.3 in /  1026.0 hPa ESE 4 mph /  6.4 km/h 4 mph /  6.4 km/h 68 % 0 in /  0.0 mm
13:34 73.9 °F /  23.3 °C 61.9 °F /  16.6 °C 30.3 in /  1026.0 hPa SE 5.6 mph /  9.0 km/h 5.6 mph /  9.0 km/h 66 % 0 in /  0.0 mm
13:39 73.9 °F /  23.3 °C 62.2 °F /  16.8 °C 30.3 in /  1026.0 hPa ENE 3.5 mph /  5.6 km/h 3.5 mph /  5.6 km/h 67 % 0 in /  0.0 mm
13:44 74.5 °F /  23.6 °C 63.1 °F /  17.3 °C 30.3 in /  1024.9 hPa WNW 2.3 mph /  3.7 km/h 2.3 mph /  3.7 km/h 68 % 0 in /  0.0 mm
13:49 75 °F /  23.9 °C 63.3 °F /  17.4 °C 30.3 in /  1024.9 hPa SW 2.3 mph /  3.7 km/h 2.3 mph /  3.7 km/h 67 % 0 in /  0.0 mm
13:54 75 °F /  23.9 °C 62.1 °F /  16.7 °C 30.3 in /  1024.9 hPa ESE 4.6 mph /  7.4 km/h 4.6 mph /  7.4 km/h 64 % 0 in /  0.0 mm
13:59 75.2 °F /  24.0 °C 62.2 °F /  16.8 °C 30.3 in /  1024.9 hPa ENE 5.8 mph /  9.3 km/h 5.8 mph /  9.3 km/h 64 % 0 in /  0.0 mm
14:04 76.1 °F /  24.5 °C 63.5 °F /  17.5 °C 30.3 in /  1024.9 hPa SSW 1.2 mph /  1.9 km/h 1.4 mph /  2.3 km/h 65 % 0 in /  0.0 mm
14:09 76.3 °F /  24.6 °C 63.7 °F /  17.6 °C 30.3 in /  1024.9 hPa SE 3.5 mph /  5.6 km/h 3.5 mph /  5.6 km/h 65 % 0 in /  0.0 mm
14:14 76.8 °F /  24.9 °C 63.7 °F /  17.6 °C 30.3 in /  1026.0 hPa SSW 6.9 mph /  11.1 km/h 6.9 mph /  11.1 km/h 64 % 0 in /  0.0 mm
14:19 77.7 °F /  25.4 °C 63.7 °F /  17.6 °C 30.3 in /  1026.0 hPa SW 4.6 mph /  7.4 km/h 4.6 mph /  7.4 km/h 62 % 0 in /  0.0 mm
14:24 78.1 °F /  25.6 °C 63.5 °F /  17.5 °C 30.3 in /  1026.0 hPa SW 5.8 mph /  9.3 km/h 5.8 mph /  9.3 km/h 61 % 0 in /  0.0 mm
14:29 78.6 °F /  25.9 °C 63.7 °F /  17.6 °C 30.3 in /  1026.0 hPa SSE 2.3 mph /  3.7 km/h 2.3 mph /  3.7 km/h 60 % 0 in /  0.0 mm
14:34 77.7 °F /  25.4 °C 62.2 °F /  16.8 °C 30.3 in /  1026.0 hPa South 5.8 mph /  9.3 km/h 5.8 mph /  9.3 km/h 59 % 0 in /  0.0 mm
14:39 78.1 °F /  25.6 °C 62.6 °F /  17.0 °C 30.3 in /  1026.0 hPa SSE 5.8 mph /  9.3 km/h 5.8 mph /  9.3 km/h 59 % 0 in /  0.0 mm
14:44 78.4 °F /  25.8 °C 63.3 °F /  17.4 °C 30.3 in /  1026.0 hPa WSW 6 mph /  9.7 km/h 6.4 mph /  10.3 km/h 60 % 0 in /  0.0 mm
14:49 78.1 °F /  25.6 °C 62.6 °F /  17.0 °C 30.3 in /  1026.0 hPa SE 6.9 mph /  11.1 km/h 6.9 mph /  11.1 km/h 59 % 0 in /  0.0 mm
14:54 78.3 °F /  25.7 °C 62.2 °F /  16.8 °C 30.3 in /  1026.0 hPa SW 5.8 mph /  9.3 km/h 5.8 mph /  9.3 km/h 58 % 0 in /  0.0 mm
14:59 78.4 °F /  25.8 °C 62.4 °F /  16.9 °C 30.3 in /  1024.9 hPa SSE 7.8 mph /  12.6 km/h 7.8 mph /  12.6 km/h 58 % 0 in /  0.0 mm
15:04 77.9 °F /  25.5 °C 61 °F /  16.1 °C 30.3 in /  1024.9 hPa North 3.5 mph /  5.6 km/h 3.5 mph /  5.6 km/h 56 % 0 in /  0.0 mm
15:09 78.6 °F /  25.9 °C 62.1 °F /  16.7 °C 30.3 in /  1024.9 hPa SW 4.6 mph /  7.4 km/h 4.6 mph /  7.4 km/h 57 % 0 in /  0.0 mm
15:14 79.3 °F /  26.3 °C 62.2 °F /  16.8 °C 30.3 in /  1024.9 hPa WSW 6.9 mph /  11.1 km/h 6.9 mph /  11.1 km/h 56 % 0 in /  0.0 mm
15:19 79.2 °F /  26.2 °C 62.1 °F /  16.7 °C 30.3 in /  1024.9 hPa WSW 3.8 mph /  6.1 km/h 3.8 mph /  6.1 km/h 56 % 0 in /  0.0 mm
15:24 79.5 °F /  26.4 °C 62.4 °F /  16.9 °C 30.3 in /  1024.9 hPa SSW 7.6 mph /  12.2 km/h 7.6 mph /  12.2 km/h 56 % 0 in /  0.0 mm
15:29 79.5 °F /  26.4 °C 61.9 °F /  16.6 °C 30.3 in /  1024.9 hPa SW 4.6 mph /  7.4 km/h 4.6 mph /  7.4 km/h 55 % 0 in /  0.0 mm
15:34 79.7 °F /  26.5 °C 62.1 °F /  16.7 °C 30.3 in /  1024.9 hPa WSW 3.5 mph /  5.6 km/h 3.5 mph /  5.6 km/h 55 % 0 in /  0.0 mm
15:39 79.7 °F /  26.5 °C 62.1 °F /  16.7 °C 30.3 in /  1024.9 hPa SSW 3.5 mph /  5.6 km/h 3.5 mph /  5.6 km/h 55 % 0 in /  0.0 mm
15:44 79.7 °F /  26.5 °C 61.2 °F /  16.2 °C 30.2 in /  1023.9 hPa SSE 6.2 mph /  10.0 km/h 6.2 mph /  10.0 km/h 53 % 0 in /  0.0 mm
15:49 80.1 °F /  26.7 °C 62.4 °F /  16.9 °C 30.2 in /  1023.9 hPa SW 4 mph /  6.4 km/h 4 mph /  6.4 km/h 55 % 0 in /  0.0 mm
15:54 80.2 °F /  26.8 °C 62.6 °F /  17.0 °C 30.2 in /  1023.9 hPa West 4.6 mph /  7.4 km/h 4.6 mph /  7.4 km/h 55 % 0 in /  0.0 mm
15:59 80.2 °F /  26.8 °C 62.1 °F /  16.7 °C 30.2 in /  1023.9 hPa West 5.8 mph /  9.3 km/h 5.8 mph /  9.3 km/h 54 % 0 in /  0.0 mm
16:04 80.4 °F /  26.9 °C 62.2 °F /  16.8 °C 30.2 in /  1023.9 hPa South 5.8 mph /  9.3 km/h 5.8 mph /  9.3 km/h 54 % 0 in /  0.0 mm
16:09 81.1 °F /  27.3 °C 61.9 °F /  16.6 °C 30.2 in /  1023.9 hPa SW 7.8 mph /  12.6 km/h 7.8 mph /  12.6 km/h 52 % 0 in /  0.0 mm
16:14 80.4 °F /  26.9 °C 61.7 °F /  16.5 °C 30.2 in /  1023.9 hPa South 5.8 mph /  9.3 km/h 5.8 mph /  9.3 km/h 53 % 0 in /  0.0 mm
16:19 80.8 °F /  27.1 °C 61.5 °F /  16.4 °C 30.2 in /  1023.9 hPa SW 4.6 mph /  7.4 km/h 4.6 mph /  7.4 km/h 52 % 0 in /  0.0 mm
16:24 80.2 °F /  26.8 °C 61.5 °F /  16.4 °C 30.2 in /  1023.9 hPa SW 5.8 mph /  9.3 km/h 5.8 mph /  9.3 km/h 53 % 0 in /  0.0 mm
16:29 79.9 °F /  26.6 °C 60.6 °F /  15.9 °C 30.2 in /  1022.9 hPa SW 6.9 mph /  11.1 km/h 6.9 mph /  11.1 km/h 52 % 0 in /  0.0 mm
16:34 80.1 °F /  26.7 °C 60.8 °F /  16.0 °C 30.2 in /  1022.9 hPa SSW 2.3 mph /  3.7 km/h 2.9 mph /  4.7 km/h 52 % 0 in /  0.0 mm
16:39 80.6 °F /  27.0 °C 60.8 °F /  16.0 °C 30.2 in /  1022.9 hPa SSW 3.6 mph /  5.8 km/h 3.6 mph /  5.8 km/h 51 % 0 in /  0.0 mm
16:44 80.2 °F /  26.8 °C 61 °F /  16.1 °C 30.2 in /  1023.9 hPa SW 5.8 mph /  9.3 km/h 5.8 mph /  9.3 km/h 52 % 0 in /  0.0 mm
16:49 79.9 °F /  26.6 °C 60.6 °F /  15.9 °C 30.2 in /  1023.9 hPa South 5.8 mph /  9.3 km/h 5.8 mph /  9.3 km/h 52 % 0 in /  0.0 mm
16:54 80.1 °F /  26.7 °C 61.3 °F /  16.3 °C 30.2 in /  1023.9 hPa SW 4.6 mph /  7.4 km/h 4.6 mph /  7.4 km/h 53 % 0 in /  0.0 mm
16:59 80.2 °F /  26.8 °C 61.5 °F /  16.4 °C 30.2 in /  1023.9 hPa WSW 5.8 mph /  9.3 km/h 5.8 mph /  9.3 km/h 53 % 0 in /  0.0 mm
17:09 78.6 °F /  25.9 °C 60.1 °F /  15.6 °C 30.2 in /  1023.9 hPa SW 9.2 mph /  14.8 km/h 9.2 mph /  14.8 km/h 53 % 0 in /  0.0 mm
17:19 78.3 °F /  25.7 °C 60.3 °F /  15.7 °C 30.2 in /  1023.9 hPa SSW 5.8 mph /  9.3 km/h 5.8 mph /  9.3 km/h 54 % 0 in /  0.0 mm
17:24 78.1 °F /  25.6 °C 60.1 °F /  15.6 °C 30.2 in /  1023.9 hPa WSW 6.9 mph /  11.1 km/h 6.9 mph /  11.1 km/h 54 % 0 in /  0.0 mm
17:29 77.7 °F /  25.4 °C 60.3 °F /  15.7 °C 30.2 in /  1023.9 hPa SSW 6.9 mph /  11.1 km/h 6.9 mph /  11.1 km/h 55 % 0 in /  0.0 mm
17:34 77.2 °F /  25.1 °C 59.7 °F /  15.4 °C 30.2 in /  1023.9 hPa SW 7.8 mph /  12.6 km/h 7.8 mph /  12.6 km/h 55 % 0 in /  0.0 mm
17:39 77 °F /  25.0 °C 59.5 °F /  15.3 °C 30.2 in /  1023.9 hPa SW 7.4 mph /  11.9 km/h 7.4 mph /  11.9 km/h 55 % 0 in /  0.0 mm
17:44 76.5 °F /  24.7 °C 60.1 °F /  15.6 °C 30.2 in /  1023.9 hPa SSW 8.1 mph /  13.0 km/h 8.1 mph /  13.0 km/h 57 % 0 in /  0.0 mm
17:49 76.3 °F /  24.6 °C 59.9 °F /  15.5 °C 30.2 in /  1023.9 hPa SW 7.8 mph /  12.6 km/h 7.8 mph /  12.6 km/h 57 % 0 in /  0.0 mm
17:54 76.1 °F /  24.5 °C 60.3 °F /  15.7 °C 30.2 in /  1023.9 hPa SW 6.9 mph /  11.1 km/h 6.9 mph /  11.1 km/h 58 % 0 in /  0.0 mm
17:59 75.7 °F /  24.3 °C 59.9 °F /  15.5 °C 30.2 in /  1023.9 hPa WSW 6.9 mph /  11.1 km/h 6.9 mph /  11.1 km/h 58 % 0 in /  0.0 mm
18:04 75.9 °F /  24.4 °C 60.6 °F /  15.9 °C 30.2 in /  1023.9 hPa SSW 8.1 mph /  13.0 km/h 8.1 mph /  13.0 km/h 59 % 0 in /  0.0 mm
18:09 75.6 °F /  24.2 °C 60.3 °F /  15.7 °C 30.2 in /  1023.9 hPa SW 8.1 mph /  13.0 km/h 8.1 mph /  13.0 km/h 59 % 0 in /  0.0 mm
18:14 75 °F /  23.9 °C 60.3 °F /  15.7 °C 30.2 in /  1023.9 hPa West 5.8 mph /  9.3 km/h 5.8 mph /  9.3 km/h 60 % 0 in /  0.0 mm
18:19 74.8 °F /  23.8 °C 60.4 °F /  15.8 °C 30.2 in /  1023.9 hPa WSW 9.7 mph /  15.6 km/h 9.7 mph /  15.6 km/h 61 % 0 in /  0.0 mm
18:24 74.5 °F /  23.6 °C 60.1 °F /  15.6 °C 30.2 in /  1023.9 hPa SW 5.8 mph /  9.3 km/h 5.8 mph /  9.3 km/h 61 % 0 in /  0.0 mm
18:26 74.5 °F /  23.6 °C 60.1 °F /  15.6 °C 30.2 in /  1023.9 hPa SW 5.8 mph /  9.3 km/h 5.8 mph /  9.3 km/h 61 % 0 in /  0.0 mm
18:31 74.3 °F /  23.5 °C 60.4 °F /  15.8 °C 30.2 in /  1023.9 hPa WSW 6.9 mph /  11.1 km/h 6.9 mph /  11.1 km/h 62 % 0 in /  0.0 mm
18:36 73.9 °F /  23.3 °C 60.4 °F /  15.8 °C 30.2 in /  1023.9 hPa SW 6.9 mph /  11.1 km/h 6.9 mph /  11.1 km/h 63 % 0 in /  0.0 mm
18:41 73.8 °F /  23.2 °C 60.4 °F /  15.8 °C 30.2 in /  1023.9 hPa SW 8.1 mph /  13.0 km/h 8.1 mph /  13.0 km/h 63 % 0 in /  0.0 mm
18:46 73.4 °F /  23.0 °C 60.4 °F /  15.8 °C 30.2 in /  1023.9 hPa SSW 5.8 mph /  9.3 km/h 5.9 mph /  9.5 km/h 64 % 0 in /  0.0 mm
18:51 73 °F /  22.8 °C 60.1 °F /  15.6 °C 30.2 in /  1023.9 hPa SSE 4.6 mph /  7.4 km/h 4.6 mph /  7.4 km/h 64 % 0 in /  0.0 mm
18:56 72.7 °F /  22.6 °C 60.3 °F /  15.7 °C 30.2 in /  1023.9 hPa SSW 4.6 mph /  7.4 km/h 4.6 mph /  7.4 km/h 65 % 0 in /  0.0 mm
19:01 72.3 °F /  22.4 °C 59.9 °F /  15.5 °C 30.3 in /  1024.9 hPa WSW 4 mph /  6.4 km/h 4 mph /  6.4 km/h 65 % 0 in /  0.0 mm
19:06 72.1 °F /  22.3 °C 60.3 °F /  15.7 °C 30.3 in /  1024.9 hPa West 3.6 mph /  5.8 km/h 3.6 mph /  5.8 km/h 66 % 0 in /  0.0 mm
19:11 71.8 °F /  22.1 °C 59.7 °F /  15.4 °C 30.3 in /  1024.9 hPa SW 5.8 mph /  9.3 km/h 5.8 mph /  9.3 km/h 66 % 0 in /  0.0 mm
19:16 71.6 °F /  22.0 °C 60.1 °F /  15.6 °C 30.2 in /  1023.9 hPa SW 4.7 mph /  7.6 km/h 4.7 mph /  7.6 km/h 67 % 0 in /  0.0 mm
19:21 71.2 °F /  21.8 °C 60.1 °F /  15.6 °C 30.2 in /  1023.9 hPa SW 4.6 mph /  7.4 km/h 4.6 mph /  7.4 km/h 68 % 0 in /  0.0 mm
19:26 71.1 °F /  21.7 °C 60.4 °F /  15.8 °C 30.2 in /  1023.9 hPa SSW 9.2 mph /  14.8 km/h 9.2 mph /  14.8 km/h 69 % 0 in /  0.0 mm
19:31 70.7 °F /  21.5 °C 60.4 °F /  15.8 °C 30.3 in /  1024.9 hPa SW 5.8 mph /  9.3 km/h 5.8 mph /  9.3 km/h 70 % 0 in /  0.0 mm
19:36 70.5 °F /  21.4 °C 60.3 °F /  15.7 °C 30.3 in /  1024.9 hPa SW 5.8 mph /  9.3 km/h 5.8 mph /  9.3 km/h 70 % 0 in /  0.0 mm
19:41 70.3 °F /  21.3 °C 60.4 °F /  15.8 °C 30.3 in /  1024.9 hPa SW 6.9 mph /  11.1 km/h 6.9 mph /  11.1 km/h 71 % 0 in /  0.0 mm
19:46 70 °F /  21.1 °C 60.1 °F /  15.6 °C 30.2 in /  1023.9 hPa WSW 5.8 mph /  9.3 km/h 5.8 mph /  9.3 km/h 71 % 0 in /  0.0 mm
19:51 69.8 °F /  21.0 °C 60.4 °F /  15.8 °C 30.2 in /  1023.9 hPa SW 5.8 mph /  9.3 km/h 5.8 mph /  9.3 km/h 72 % 0 in /  0.0 mm
19:56 69.6 °F /  20.9 °C 60.6 °F /  15.9 °C 30.2 in /  1023.9 hPa SW 8.1 mph /  13.0 km/h 8.1 mph /  13.0 km/h 73 % 0 in /  0.0 mm
20:01 69.4 °F /  20.8 °C 60.4 °F /  15.8 °C 30.3 in /  1024.9 hPa SW 5.8 mph /  9.3 km/h 5.8 mph /  9.3 km/h 73 % 0 in /  0.0 mm
20:06 69.4 °F /  20.8 °C 60.8 °F /  16.0 °C 30.3 in /  1024.9 hPa SW 5.8 mph /  9.3 km/h 5.8 mph /  9.3 km/h 74 % 0 in /  0.0 mm
20:11 69.3 °F /  20.7 °C 60.6 °F /  15.9 °C 30.3 in /  1024.9 hPa SW 5.8 mph /  9.3 km/h 5.8 mph /  9.3 km/h 74 % 0 in /  0.0 mm
20:16 69.1 °F /  20.6 °C 60.8 °F /  16.0 °C 30.3 in /  1024.9 hPa West 5.8 mph /  9.3 km/h 5.8 mph /  9.3 km/h 75 % 0 in /  0.0 mm
20:21 69.1 °F /  20.6 °C 60.8 °F /  16.0 °C 30.3 in /  1024.9 hPa SSW 4.6 mph /  7.4 km/h 4.6 mph /  7.4 km/h 75 % 0 in /  0.0 mm
20:26 68.9 °F /  20.5 °C 61 °F /  16.1 °C 30.3 in /  1024.9 hPa West 4.9 mph /  7.9 km/h 4.9 mph /  7.9 km/h 76 % 0 in /  0.0 mm
20:31 68.7 °F /  20.4 °C 60.8 °F /  16.0 °C 30.3 in /  1026.0 hPa WSW 5.8 mph /  9.3 km/h 5.8 mph /  9.3 km/h 76 % 0 in /  0.0 mm
20:36 68.7 °F /  20.4 °C 61.2 °F /  16.2 °C 30.3 in /  1026.0 hPa West 2.6 mph /  4.2 km/h 2.6 mph /  4.2 km/h 77 % 0 in /  0.0 mm
20:41 68.5 °F /  20.3 °C 61 °F /  16.1 °C 30.3 in /  1026.0 hPa WSW 3.5 mph /  5.6 km/h 3.5 mph /  5.6 km/h 77 % 0 in /  0.0 mm
20:46 68.4 °F /  20.2 °C 61 °F /  16.1 °C 30.3 in /  1026.0 hPa WSW 3.5 mph /  5.6 km/h 3.5 mph /  5.6 km/h 77 % 0 in /  0.0 mm
20:51 68.4 °F /  20.2 °C 61 °F /  16.1 °C 30.3 in /  1026.0 hPa SW 4.6 mph /  7.4 km/h 4.6 mph /  7.4 km/h 77 % 0 in /  0.0 mm
20:56 68.2 °F /  20.1 °C 61.2 °F /  16.2 °C 30.3 in /  1026.0 hPa SW 4.6 mph /  7.4 km/h 4.6 mph /  7.4 km/h 78 % 0 in /  0.0 mm
21:01 68.2 °F /  20.1 °C 61.2 °F /  16.2 °C 30.3 in /  1026.0 hPa SW 3.5 mph /  5.6 km/h 3.5 mph /  5.6 km/h 78 % 0 in /  0.0 mm
21:06 68 °F /  20.0 °C 61 °F /  16.1 °C 30.3 in /  1026.0 hPa WSW 4.6 mph /  7.4 km/h 4.6 mph /  7.4 km/h 78 % 0 in /  0.0 mm
21:11 68 °F /  20.0 °C 61 °F /  16.1 °C 30.3 in /  1026.0 hPa SW 4.6 mph /  7.4 km/h 4.6 mph /  7.4 km/h 78 % 0 in /  0.0 mm
21:16 67.8 °F /  19.9 °C 61.2 °F /  16.2 °C 30.3 in /  1026.0 hPa SSW 3.5 mph /  5.6 km/h 3.5 mph /  5.6 km/h 79 % 0 in /  0.0 mm
21:21 67.6 °F /  19.8 °C 61 °F /  16.1 °C 30.3 in /  1026.0 hPa WSW 3.5 mph /  5.6 km/h 3.5 mph /  5.6 km/h 79 % 0 in /  0.0 mm
21:26 67.6 °F /  19.8 °C 61 °F /  16.1 °C 30.3 in /  1026.0 hPa SW 2.4 mph /  3.9 km/h 2.4 mph /  3.9 km/h 79 % 0 in /  0.0 mm
21:31 67.5 °F /  19.7 °C 61.2 °F /  16.2 °C 30.3 in /  1026.0 hPa SW 3.5 mph /  5.6 km/h 3.5 mph /  5.6 km/h 80 % 0 in /  0.0 mm
21:36 67.5 °F /  19.7 °C 61.2 °F /  16.2 °C 30.3 in /  1026.0 hPa SW 3.1 mph /  5.0 km/h 3.1 mph /  5.0 km/h 80 % 0 in /  0.0 mm
21:41 67.5 °F /  19.7 °C 61.2 °F /  16.2 °C 30.3 in /  1026.0 hPa West 3.5 mph /  5.6 km/h 3.5 mph /  5.6 km/h 80 % 0 in /  0.0 mm
21:46 67.3 °F /  19.6 °C 61.2 °F /  16.2 °C 30.3 in /  1027.0 hPa WSW 2.3 mph /  3.7 km/h 2.3 mph /  3.7 km/h 81 % 0 in /  0.0 mm
21:51 67.3 °F /  19.6 °C 61.2 °F /  16.2 °C 30.3 in /  1027.0 hPa SW 1.2 mph /  1.9 km/h   81 % 0 in /  0.0 mm
21:56 67.1 °F /  19.5 °C 61.3 °F /  16.3 °C 30.3 in /  1027.0 hPa West 1.2 mph /  1.9 km/h 1.2 mph /  1.9 km/h 82 % 0 in /  0.0 mm
22:01 67.1 °F /  19.5 °C 61.3 °F /  16.3 °C 30.3 in /  1026.0 hPa SW 2 mph /  3.2 km/h   82 % 0 in /  0.0 mm
22:06 67.1 °F /  19.5 °C 61.3 °F /  16.3 °C 30.3 in /  1026.0 hPa WSW 1.2 mph /  1.9 km/h   82 % 0 in /  0.0 mm
22:11 66.9 °F /  19.4 °C 61.2 °F /  16.2 °C 30.3 in /  1026.0 hPa WSW 1.2 mph /  1.9 km/h 1.2 mph /  1.9 km/h 82 % 0 in /  0.0 mm
22:16 66.9 °F /  19.4 °C 61.2 °F /  16.2 °C 30.3 in /  1026.0 hPa West 2.3 mph /  3.7 km/h 2.3 mph /  3.7 km/h 82 % 0 in /  0.0 mm
22:21 66.9 °F /  19.4 °C 61.2 °F /  16.2 °C 30.3 in /  1026.0 hPa West 1.2 mph /  1.9 km/h 1.2 mph /  1.9 km/h 82 % 0 in /  0.0 mm
22:26 66.7 °F /  19.3 °C 61.3 °F /  16.3 °C 30.3 in /  1026.0 hPa West 2.3 mph /  3.7 km/h 2.3 mph /  3.7 km/h 83 % 0 in /  0.0 mm
22:31 66.7 °F /  19.3 °C 61.3 °F /  16.3 °C 30.3 in /  1026.0 hPa WSW 1.2 mph /  1.9 km/h 1.2 mph /  1.9 km/h 83 % 0 in /  0.0 mm
22:36 66.6 °F /  19.2 °C 61.2 °F /  16.2 °C 30.3 in /  1026.0 hPa WSW 1.2 mph /  1.9 km/h 1.2 mph /  1.9 km/h 83 % 0 in /  0.0 mm
22:41 66.6 °F /  19.2 °C 61.2 °F /  16.2 °C 30.3 in /  1026.0 hPa WSW 2.3 mph /  3.7 km/h 2.3 mph /  3.7 km/h 83 % 0 in /  0.0 mm
22:46 66.6 °F /  19.2 °C 61.2 °F /  16.2 °C 30.3 in /  1026.0 hPa WSW 1.6 mph /  2.6 km/h   83 % 0 in /  0.0 mm
22:51 66.4 °F /  19.1 °C 61.2 °F /  16.2 °C 30.3 in /  1026.0 hPa WSW 2.3 mph /  3.7 km/h 2.3 mph /  3.7 km/h 83 % 0 in /  0.0 mm
22:56 66.4 °F /  19.1 °C 61.3 °F /  16.3 °C 30.3 in /  1026.0 hPa SW 1.2 mph /  1.9 km/h   84 % 0 in /  0.0 mm
23:01 66.2 °F /  19.0 °C 61.2 °F /  16.2 °C 30.3 in /  1026.0 hPa Calm     84 % 0 in /  0.0 mm
23:06 66.2 °F /  19.0 °C 61.2 °F /  16.2 °C 30.3 in /  1026.0 hPa WSW 1.2 mph /  1.9 km/h 1.2 mph /  1.9 km/h 84 % 0 in /  0.0 mm
23:11 66.4 °F /  19.1 °C 61.3 °F /  16.3 °C 30.3 in /  1026.0 hPa West 1.2 mph /  1.9 km/h 1.4 mph /  2.3 km/h 84 % 0 in /  0.0 mm
23:16 66.2 °F /  19.0 °C 61.2 °F /  16.2 °C 30.3 in /  1026.0 hPa West 2.3 mph /  3.7 km/h 2.3 mph /  3.7 km/h 84 % 0 in /  0.0 mm
23:21 66.2 °F /  19.0 °C 61.2 °F /  16.2 °C 30.3 in /  1026.0 hPa WSW 2.3 mph /  3.7 km/h 2.3 mph /  3.7 km/h 84 % 0 in /  0.0 mm
23:26 66.2 °F /  19.0 °C 61.2 °F /  16.2 °C 30.3 in /  1026.0 hPa WSW 2.3 mph /  3.7 km/h 2.3 mph /  3.7 km/h 84 % 0 in /  0.0 mm
23:31 66.2 °F /  19.0 °C 61.2 °F /  16.2 °C 30.3 in /  1026.0 hPa West 2.3 mph /  3.7 km/h 2.3 mph /  3.7 km/h 84 % 0 in /  0.0 mm
23:36 66.2 °F /  19.0 °C 61.2 °F /  16.2 °C 30.3 in /  1026.0 hPa SW 2.3 mph /  3.7 km/h 2.3 mph /  3.7 km/h 84 % 0 in /  0.0 mm
23:41 66.2 °F /  19.0 °C 61.5 °F /  16.4 °C 30.3 in /  1026.0 hPa West 1.2 mph /  1.9 km/h 1.4 mph /  2.3 km/h 85 % 0 in /  0.0 mm
23:46 66.2 °F /  19.0 °C 61.5 °F /  16.4 °C 30.3 in /  1026.0 hPa West 3.5 mph /  5.6 km/h 3.5 mph /  5.6 km/h 85 % 0 in /  0.0 mm
23:51 66.2 °F /  19.0 °C 61.5 °F /  16.4 °C 30.3 in /  1026.0 hPa West 2.3 mph /  3.7 km/h 2.3 mph /  3.7 km/h 85 % 0 in /  0.0 mm
23:56 66.2 °F /  19.0 °C 61.5 °F /  16.4 °C 30.3 in /  1026.0 hPa WSW 4.6 mph /  7.4 km/h 4.6 mph /  7.4 km/h 85 % 0 in /  0.0 mm
Meteo Sesrovires
Elogis d' Weather Underground - 3.5 mb

Guio original per  Jim McMurry - jmcmurry@mwt.net Adaptat per a la plantilla per  Wim van der Kuil - Leuven-Template.eu

Trobareu la nostra informacio del temps tambe a:

Weather Underground

AWEKAS